Pagrindinis puslapis
METAR-TAF:

METAR-TAF

Oro uostai :

Kujaba, Mato Grosas, Brazilija

platuma: 15-39S, ilguma: 056-06W, Aukštis: 187 m

Dabartinis oras

Ataskaita buvo paskelbta 48 minutes, ne 22:00 UTC
Vėjas 3 kt iš Šiaurės/Šiaurės Vakarų
Temperatūra 36°C
Drėgmė 16%
Slėgis 1008 hPa
Matomumas: 7000 m

METAR: SBCY 162200Z 33003KT 7000 NSC 36/06 Q1008

Laikas: 18:48 (22:48 UTC)

Prognozė

Ataskaita buvo paskelbta 6 valandos ir 18 minutes, ne 16:30 UTC
Prognozė galioja nuo 16 metu 18 UTC su 17 metu 18 UTC
Vėjas 10 kt iš Šiaurės/Šiaurės Vakarų
Matomumas: 7000 m
Tapsmas
nuo 16 metu 21 UTC su 16 metu 23 UTC
Vėjas 5 kt iš Vakarų/Pietvakarių
Tapsmas
nuo 17 metu 02 UTC su 17 metu 04 UTC
Vėjas 5 kt iš Šiaurės Vakarų
Tapsmas
nuo 17 metu 08 UTC su 17 metu 10 UTC
Matomumas: 4000 m
dūmai
Tapsmas
nuo 17 metu 15 UTC su 17 metu 17 UTC
Vėjas 10 kt iš Šiaurės
Matomumas: 7000 m

TAF: SBCY 161630Z 1618/1718 33010KT 7000 NSC TN27/1710Z TX43/1718Z BECMG 1621/1623 25005KT BECMG 1702/1704 32005KT BECMG 1708/1710 4000 FU BECMG 1715/1717 36010KT 7000 NSW RMK PGB

Orai ataskaitas ir orų prognozės (METAR, TAF).

turimą stotys yra geltonos ir raudonos taškus žemėlapyje.

Perkelti pele per norėdami pamatyti stoties vardą.

Tada spustelėkite, norėdami matyti oro stebėjimo ir prognozės.

Norėdami pakeisti žemėlapį: spustelėkite ant žalios mygtukų su juodo kryžiaus žemyn,; žalią mygtuką su brūkšneliu, jei norite nutolinti; arba žalių rodyklių gretimoms žemėlapius.


METAR-TAF: